Hakozaki Maru — JJ3662 — position and weather

sailwx.info

Track history (hours):
 
Tides and Currents Weather Stations Pressure Air Temp Water Temp Dewpoint Dewpoint Depression Visibility Wind Speed Wind Dir Waves Ship Positions

Hakozaki Maru

Last reported at 2014-Aug-21 23:33 UTC. Time now 2014-Aug-22 00:03 UTC.
Position N 34°41' E 135°12'.

Length 31 m; draft 2.5 m.

Type: Tug. MMSI: 431000322.

Date/timePositionNaut miles runAvg speedWind from/ knotsBaromVisibWave heightAir tempDewpointWater temp
2014-Aug-21 23:33N 34°41' E 135°12'3 2.8
2014-Aug-21 22:34N 34°42' E 135°15'2 1.9
2014-Aug-21 21:33N 34°40' E 135°15'0 0.0
2014-Aug-21 06:33N 34°40' E 135°15'2 2.4
2014-Aug-21 05:33N 34°41' E 135°12'0 0.0
2014-Aug-21 04:33N 34°41' E 135°12'0 0.0
2014-Aug-21 03:33N 34°41' E 135°12'0 0.0
2014-Aug-21 02:33N 34°41' E 135°12'0 0.0
2014-Aug-21 01:33N 34°41' E 135°12'0 0.0
2014-Aug-21 00:33N 34°41' E 135°12'0 0.0
2014-Aug-20 23:33N 34°41' E 135°12'0 0.0
2014-Aug-20 22:33N 34°41' E 135°12'2 0.1
2014-Aug-19 17:33N 34°40' E 135°14'1 1.1
2014-Aug-19 16:33N 34°39' E 135°15'3 3.1
2014-Aug-19 15:33N 34°41' E 135°12'0 0.0
2014-Aug-19 14:33N 34°41' E 135°12'0 0.0
2014-Aug-19 13:33N 34°41' E 135°12'0 0.0
2014-Aug-19 12:33N 34°41' E 135°12'0 0.0
2014-Aug-19 11:33N 34°41' E 135°12'1 1.2
2014-Aug-19 10:33N 34°41' E 135°14'1 1.4
2014-Aug-19 09:33N 34°41' E 135°15'1 1.3
2014-Aug-19 08:33N 34°40' E 135°15'0 0.4
2014-Aug-19 07:33N 34°40' E 135°15'1 0.7
2014-Aug-19 06:33N 34°40' E 135°14'2 2.0
2014-Aug-19 05:33N 34°41' E 135°12'0 0.0
2014-Aug-19 04:33N 34°41' E 135°12'0 0.0
2014-Aug-19 03:33N 34°41' E 135°12'0 0.0
2014-Aug-19 02:33N 34°41' E 135°12'0 0.0
2014-Aug-19 01:33N 34°41' E 135°12'1 1.1
2014-Aug-19 00:33N 34°40' E 135°11'1 1.1
2014-Aug-18 23:33N 34°41' E 135°12'1 1.3
2014-Aug-18 22:33N 34°41' E 135°14'2 2.1
2014-Aug-18 21:33N 34°40' E 135°15'3 2.7
2014-Aug-18 20:33N 34°41' E 135°12'4 0.3
2014-Aug-18 07:20N 34°41' E 135°17'4 5.0
2014-Aug-18 06:33N 34°41' E 135°13'0 0.5
2014-Aug-18 05:33N 34°41' E 135°12'0 0.0
2014-Aug-18 04:33N 34°41' E 135°12'0 0.0
2014-Aug-18 03:33N 34°41' E 135°12'0 0.0
2014-Aug-18 02:34N 34°41' E 135°12'5 4.7
2014-Aug-18 01:34N 34°42' E 135°18'1 0.5
2014-Aug-18 00:33N 34°42' E 135°17'3 0.1
2014-Aug-17 05:13N 34°41' E 135°14'0 0.4
2014-Aug-17 04:33N 34°41' E 135°14'1 1.4
2014-Aug-17 03:33N 34°41' E 135°12'0 0.0
2014-Aug-17 02:33N 34°41' E 135°12'0 0.0
2014-Aug-17 01:33N 34°41' E 135°12'0 0.0
2014-Aug-17 00:33N 34°41' E 135°12'0 0.0
2014-Aug-16 23:33N 34°41' E 135°12'0 0.0
2014-Aug-16 22:34N 34°41' E 135°12'0 0.0
2014-Aug-15 23:13N 34°41' E 135°13'2 3.1
2014-Aug-15 22:33N 34°42' E 135°15'2 2.0
2014-Aug-15 21:33N 34°40' E 135°15'3 0.1
2014-Aug-15 00:31N 34°41' E 135°12'0 0.4
2014-Aug-14 23:33N 34°41' E 135°13'4 4.3
2014-Aug-14 22:33N 34°42' E 135°18'1 0.8
2014-Aug-14 21:33N 34°42' E 135°17'4 3.9
2014-Aug-14 20:33N 34°41' E 135°12'0 0.0
2014-Aug-14 04:16N 34°41' E 135°13'2 2.7
2014-Aug-14 03:33N 34°41' E 135°15'1 0.7
2014-Aug-14 02:33N 34°41' E 135°14'2 1.7
2014-Aug-14 01:33N 34°41' E 135°12'0 0.0
2014-Aug-14 00:33N 34°41' E 135°12'1 1.2
2014-Aug-13 23:33N 34°41' E 135°14'3 3.1
2014-Aug-13 22:33N 34°42' E 135°17'1 1.4
2014-Aug-13 21:33N 34°42' E 135°16'3 3.0
2014-Aug-13 20:33N 34°41' E 135°12'2 0.1
2014-Aug-13 05:23N 34°42' E 135°15'2 2.5
2014-Aug-13 04:33N 34°41' E 135°12'0 0.0
2014-Aug-13 03:33N 34°41' E 135°12'1 1.3
2014-Aug-13 02:33N 34°40' E 135°13'1 0.7
2014-Aug-13 01:33N 34°40' E 135°14'0 0.0
2014-Aug-13 00:33N 34°40' E 135°14'0 0.5
2014-Aug-12 23:33N 34°40' E 135°14'2 1.9
2014-Aug-12 22:33N 34°40' E 135°16'3 3.2
2014-Aug-12 21:33N 34°41' E 135°13'1 0.1
2014-Aug-12 08:14N 34°40' E 135°14'1 1.0
2014-Aug-12 07:33N 34°40' E 135°14'1 1.1
2014-Aug-12 06:33N 34°40' E 135°15'0 0.0
2014-Aug-12 05:33N 34°40' E 135°15'0 0.0
2014-Aug-12 04:33N 34°40' E 135°15'0 0.0
2014-Aug-12 03:33N 34°40' E 135°15'1 0.6
2014-Aug-12 02:33N 34°39' E 135°15'0 0.3
2014-Aug-12 01:33N 34°40' E 135°14'0 0.0
2014-Aug-12 00:33N 34°40' E 135°14'  
Track history (hours):
 
Tides and Currents Weather Stations Pressure Air Temp Water Temp Dewpoint Dewpoint Depression Visibility Wind Speed Wind Dir Waves Ship Positions

Hakozaki Maru

Last reported at 2014-Aug-21 23:33 UTC. Time now 2014-Aug-22 00:03 UTC.
Position N 34°41' E 135°12'.

Length 31 m; draft 2.5 m.

Type: Tug. MMSI: 431000322.

Date/timePositionNaut miles runAvg speedWind from/ knotsBaromVisibWave heightAir tempDewpointWater temp
2014-Aug-21 23:33N 34°41' E 135°12'3 2.8
2014-Aug-21 22:34N 34°42' E 135°15'2 1.9
2014-Aug-21 21:33N 34°40' E 135°15'0 0.0
2014-Aug-21 06:33N 34°40' E 135°15'2 2.4
2014-Aug-21 05:33N 34°41' E 135°12'0 0.0
2014-Aug-21 04:33N 34°41' E 135°12'0 0.0
2014-Aug-21 03:33N 34°41' E 135°12'0 0.0
2014-Aug-21 02:33N 34°41' E 135°12'0 0.0
2014-Aug-21 01:33N 34°41' E 135°12'0 0.0
2014-Aug-21 00:33N 34°41' E 135°12'0 0.0
2014-Aug-20 23:33N 34°41' E 135°12'0 0.0
2014-Aug-20 22:33N 34°41' E 135°12'2 0.1
2014-Aug-19 17:33N 34°40' E 135°14'1 1.1
2014-Aug-19 16:33N 34°39' E 135°15'3 3.1
2014-Aug-19 15:33N 34°41' E 135°12'0 0.0
2014-Aug-19 14:33N 34°41' E 135°12'0 0.0
2014-Aug-19 13:33N 34°41' E 135°12'0 0.0
2014-Aug-19 12:33N 34°41' E 135°12'0 0.0
2014-Aug-19 11:33N 34°41' E 135°12'1 1.2
2014-Aug-19 10:33N 34°41' E 135°14'1 1.4
2014-Aug-19 09:33N 34°41' E 135°15'1 1.3
2014-Aug-19 08:33N 34°40' E 135°15'0 0.4
2014-Aug-19 07:33N 34°40' E 135°15'1 0.7
2014-Aug-19 06:33N 34°40' E 135°14'2 2.0
2014-Aug-19 05:33N 34°41' E 135°12'0 0.0
2014-Aug-19 04:33N 34°41' E 135°12'0 0.0
2014-Aug-19 03:33N 34°41' E 135°12'0 0.0
2014-Aug-19 02:33N 34°41' E 135°12'0 0.0
2014-Aug-19 01:33N 34°41' E 135°12'1 1.1
2014-Aug-19 00:33N 34°40' E 135°11'1 1.1
2014-Aug-18 23:33N 34°41' E 135°12'1 1.3
2014-Aug-18 22:33N 34°41' E 135°14'2 2.1
2014-Aug-18 21:33N 34°40' E 135°15'3 2.7
2014-Aug-18 20:33N 34°41' E 135°12'4 0.3
2014-Aug-18 07:20N 34°41' E 135°17'4 5.0
2014-Aug-18 06:33N 34°41' E 135°13'0 0.5
2014-Aug-18 05:33N 34°41' E 135°12'0 0.0
2014-Aug-18 04:33N 34°41' E 135°12'0 0.0
2014-Aug-18 03:33N 34°41' E 135°12'0 0.0
2014-Aug-18 02:34N 34°41' E 135°12'5 4.7
2014-Aug-18 01:34N 34°42' E 135°18'1 0.5
2014-Aug-18 00:33N 34°42' E 135°17'3 0.1
2014-Aug-17 05:13N 34°41' E 135°14'0 0.4
2014-Aug-17 04:33N 34°41' E 135°14'1 1.4
2014-Aug-17 03:33N 34°41' E 135°12'0 0.0
2014-Aug-17 02:33N 34°41' E 135°12'0 0.0
2014-Aug-17 01:33N 34°41' E 135°12'0 0.0
2014-Aug-17 00:33N 34°41' E 135°12'0 0.0
2014-Aug-16 23:33N 34°41' E 135°12'0 0.0
2014-Aug-16 22:34N 34°41' E 135°12'0 0.0
2014-Aug-15 23:13N 34°41' E 135°13'2 3.1
2014-Aug-15 22:33N 34°42' E 135°15'2 2.0
2014-Aug-15 21:33N 34°40' E 135°15'3 0.1
2014-Aug-15 00:31N 34°41' E 135°12'0 0.4
2014-Aug-14 23:33N 34°41' E 135°13'4 4.3
2014-Aug-14 22:33N 34°42' E 135°18'1 0.8
2014-Aug-14 21:33N 34°42' E 135°17'4 3.9
2014-Aug-14 20:33N 34°41' E 135°12'0 0.0
2014-Aug-14 04:16N 34°41' E 135°13'2 2.7
2014-Aug-14 03:33N 34°41' E 135°15'1 0.7
2014-Aug-14 02:33N 34°41' E 135°14'2 1.7
2014-Aug-14 01:33N 34°41' E 135°12'0 0.0
2014-Aug-14 00:33N 34°41' E 135°12'1 1.2
2014-Aug-13 23:33N 34°41' E 135°14'3 3.1
2014-Aug-13 22:33N 34°42' E 135°17'1 1.4
2014-Aug-13 21:33N 34°42' E 135°16'3 3.0
2014-Aug-13 20:33N 34°41' E 135°12'2 0.1
2014-Aug-13 05:23N 34°42' E 135°15'2 2.5
2014-Aug-13 04:33N 34°41' E 135°12'0 0.0
2014-Aug-13 03:33N 34°41' E 135°12'1 1.3
2014-Aug-13 02:33N 34°40' E 135°13'1 0.7
2014-Aug-13 01:33N 34°40' E 135°14'0 0.0
2014-Aug-13 00:33N 34°40' E 135°14'0 0.5
2014-Aug-12 23:33N 34°40' E 135°14'2 1.9
2014-Aug-12 22:33N 34°40' E 135°16'3 3.2
2014-Aug-12 21:33N 34°41' E 135°13'1 0.1
2014-Aug-12 08:14N 34°40' E 135°14'1 1.0
2014-Aug-12 07:33N 34°40' E 135°14'1 1.1
2014-Aug-12 06:33N 34°40' E 135°15'0 0.0
2014-Aug-12 05:33N 34°40' E 135°15'0 0.0
2014-Aug-12 04:33N 34°40' E 135°15'0 0.0
2014-Aug-12 03:33N 34°40' E 135°15'1 0.6
2014-Aug-12 02:33N 34°39' E 135°15'0 0.3
2014-Aug-12 01:33N 34°40' E 135°14'0 0.0
2014-Aug-12 00:33N 34°40' E 135°14'  

Dump ship's entire track history